sensor_id;sensor_type;location;lat;lon;timestamp;P1;durP1;ratioP1;P2;durP2;ratioP2
41043;SDS011;51680;49.806;18.774;2022-10-19T00:01:02;7.73;;;3.00;;
41043;SDS011;51680;49.806;18.774;2022-10-19T00:04:05;7.07;;;3.15;;
41043;SDS011;51680;49.806;18.774;2022-10-19T00:07:07;4.55;;;3.03;;
41043;SDS011;51680;49.806;18.774;2022-10-19T00:10:09;4.85;;;3.10;;
41043;SDS011;51680;49.806;18.774;2022-10-19T00:13:12;5.40;;;3.20;;
41043;SDS011;51680;49.806;18.774;2022-10-19T00:16:14;6.77;;;3.33;;
41043;SDS011;51680;49.806;18.774;2022-10-19T00:19:18;11.07;;;6.13;;
41043;SDS011;51680;49.806;18.774;2022-10-19T00:22:21;10.63;;;5.90;;
41043;SDS011;51680;49.806;18.774;2022-10-19T00:25:23;8.55;;;5.85;;
41043;SDS011;51680;49.806;18.774;2022-10-19T00:28:26;9.63;;;5.70;;
41043;SDS011;51680;49.806;18.774;2022-10-19T00:31:28;7.77;;;5.67;;
41043;SDS011;51680;49.806;18.774;2022-10-19T00:34:30;8.27;;;5.53;;
41043;SDS011;51680;49.806;18.774;2022-10-19T00:37:31;10.05;;;6.60;;
41043;SDS011;51680;49.806;18.774;2022-10-19T00:40:35;9.52;;;6.68;;
41043;SDS011;51680;49.806;18.774;2022-10-19T00:43:52;8.32;;;6.80;;
41043;SDS011;51680;49.806;18.774;2022-10-19T00:46:57;10.68;;;6.85;;
41043;SDS011;51680;49.806;18.774;2022-10-19T00:50:02;12.60;;;6.80;;
41043;SDS011;51680;49.806;18.774;2022-10-19T00:53:04;9.77;;;7.45;;
41043;SDS011;51680;49.806;18.774;2022-10-19T00:56:08;8.50;;;6.93;;
41043;SDS011;51680;49.806;18.774;2022-10-19T00:59:15;9.45;;;7.10;;
41043;SDS011;51680;49.806;18.774;2022-10-19T01:02:19;9.73;;;7.85;;
41043;SDS011;51680;49.806;18.774;2022-10-19T01:05:21;14.25;;;8.52;;
41043;SDS011;51680;49.806;18.774;2022-10-19T01:08:22;15.50;;;8.90;;
41043;SDS011;51680;49.806;18.774;2022-10-19T01:11:30;11.98;;;8.38;;
41043;SDS011;51680;49.806;18.774;2022-10-19T01:14:46;12.73;;;8.80;;
41043;SDS011;51680;49.806;18.774;2022-10-19T01:18:05;17.08;;;8.55;;
41043;SDS011;51680;49.806;18.774;2022-10-19T01:21:19;14.48;;;9.02;;
41043;SDS011;51680;49.806;18.774;2022-10-19T01:24:25;11.63;;;9.45;;
41043;SDS011;51680;49.806;18.774;2022-10-19T01:31:11;12.90;;;8.45;;
41043;SDS011;51680;49.806;18.774;2022-10-19T01:34:22;11.98;;;8.95;;
41043;SDS011;51680;49.806;18.774;2022-10-19T01:37:30;11.52;;;8.55;;
41043;SDS011;51680;49.806;18.774;2022-10-19T01:40:37;13.50;;;9.02;;
41043;SDS011;51680;49.806;18.774;2022-10-19T01:43:45;14.02;;;8.60;;
41043;SDS011;51680;49.806;18.774;2022-10-19T01:46:57;13.68;;;8.65;;
41043;SDS011;51680;49.806;18.774;2022-10-19T01:50:05;11.68;;;8.88;;
41043;SDS011;51680;49.806;18.774;2022-10-19T01:53:13;12.40;;;8.50;;
41043;SDS011;51680;49.806;18.774;2022-10-19T01:56:19;15.68;;;8.77;;
41043;SDS011;51680;49.806;18.774;2022-10-19T01:59:24;14.38;;;9.32;;
41043;SDS011;51680;49.806;18.774;2022-10-19T02:02:28;11.27;;;8.38;;
41043;SDS011;51680;49.806;18.774;2022-10-19T02:05:30;20.83;;;9.23;;
41043;SDS011;51680;49.806;18.774;2022-10-19T02:08:36;12.68;;;9.45;;
41043;SDS011;51680;49.806;18.774;2022-10-19T02:11:40;15.98;;;9.43;;
41043;SDS011;51680;49.806;18.774;2022-10-19T02:14:43;14.07;;;9.38;;
41043;SDS011;51680;49.806;18.774;2022-10-19T02:17:50;17.85;;;9.88;;
41043;SDS011;51680;49.806;18.774;2022-10-19T02:20:56;15.85;;;9.88;;
41043;SDS011;51680;49.806;18.774;2022-10-19T02:23:58;11.50;;;9.18;;
41043;SDS011;51680;49.806;18.774;2022-10-19T02:27:00;17.83;;;10.18;;
41043;SDS011;51680;49.806;18.774;2022-10-19T02:30:04;17.73;;;9.82;;
41043;SDS011;51680;49.806;18.774;2022-10-19T02:33:08;13.97;;;10.50;;
41043;SDS011;51680;49.806;18.774;2022-10-19T02:36:11;14.07;;;10.65;;
41043;SDS011;51680;49.806;18.774;2022-10-19T02:39:13;17.08;;;11.50;;
41043;SDS011;51680;49.806;18.774;2022-10-19T02:42:16;18.23;;;12.70;;
41043;SDS011;51680;49.806;18.774;2022-10-19T02:45:23;17.95;;;11.73;;
41043;SDS011;51680;49.806;18.774;2022-10-19T02:48:29;20.35;;;12.93;;
41043;SDS011;51680;49.806;18.774;2022-10-19T02:51:34;18.27;;;13.45;;
41043;SDS011;51680;49.806;18.774;2022-10-19T02:54:38;18.17;;;12.85;;
41043;SDS011;51680;49.806;18.774;2022-10-19T02:57:41;21.42;;;12.48;;
41043;SDS011;51680;49.806;18.774;2022-10-19T03:00:43;19.90;;;12.00;;
41043;SDS011;51680;49.806;18.774;2022-10-19T03:03:46;20.77;;;12.38;;
41043;SDS011;51680;49.806;18.774;2022-10-19T03:06:48;18.63;;;12.07;;
41043;SDS011;51680;49.806;18.774;2022-10-19T03:09:50;17.73;;;11.23;;
41043;SDS011;51680;49.806;18.774;2022-10-19T03:12:51;19.20;;;11.98;;
41043;SDS011;51680;49.806;18.774;2022-10-19T03:15:53;19.40;;;12.38;;
41043;SDS011;51680;49.806;18.774;2022-10-19T03:18:56;20.73;;;12.73;;
41043;SDS011;51680;49.806;18.774;2022-10-19T03:21:58;19.25;;;12.77;;
41043;SDS011;51680;49.806;18.774;2022-10-19T03:25:00;18.52;;;12.05;;
41043;SDS011;51680;49.806;18.774;2022-10-19T03:28:02;17.67;;;12.18;;
41043;SDS011;51680;49.806;18.774;2022-10-19T03:31:04;18.48;;;12.00;;
41043;SDS011;51680;49.806;18.774;2022-10-19T03:34:07;19.02;;;12.02;;
41043;SDS011;51680;49.806;18.774;2022-10-19T03:37:09;20.30;;;12.02;;
41043;SDS011;51680;49.806;18.774;2022-10-19T03:40:12;17.65;;;12.32;;
41043;SDS011;51680;49.806;18.774;2022-10-19T03:43:14;19.52;;;12.20;;
41043;SDS011;51680;49.806;18.774;2022-10-19T03:46:16;19.10;;;11.95;;
41043;SDS011;51680;49.806;18.774;2022-10-19T03:49:19;15.52;;;11.05;;
41043;SDS011;51680;49.806;18.774;2022-10-19T03:52:39;19.48;;;11.00;;
41043;SDS011;51680;49.806;18.774;2022-10-19T03:55:41;16.63;;;10.63;;
41043;SDS011;51680;49.806;18.774;2022-10-19T03:58:44;13.13;;;9.73;;
41043;SDS011;51680;49.806;18.774;2022-10-19T04:01:46;13.27;;;9.60;;
41043;SDS011;51680;49.806;18.774;2022-10-19T04:04:49;13.40;;;9.73;;
41043;SDS011;51680;49.806;18.774;2022-10-19T04:07:51;16.90;;;10.30;;
41043;SDS011;51680;49.806;18.774;2022-10-19T04:10:57;15.55;;;10.18;;
41043;SDS011;51680;49.806;18.774;2022-10-19T04:13:59;16.50;;;11.10;;
41043;SDS011;51680;49.806;18.774;2022-10-19T04:17:02;15.73;;;10.35;;
41043;SDS011;51680;49.806;18.774;2022-10-19T04:20:06;15.32;;;10.18;;
41043;SDS011;51680;49.806;18.774;2022-10-19T04:23:08;12.35;;;9.38;;
41043;SDS011;51680;49.806;18.774;2022-10-19T04:26:10;14.35;;;9.70;;
41043;SDS011;51680;49.806;18.774;2022-10-19T04:29:12;17.95;;;10.25;;
41043;SDS011;51680;49.806;18.774;2022-10-19T04:32:14;12.73;;;8.88;;
41043;SDS011;51680;49.806;18.774;2022-10-19T04:35:17;15.82;;;9.32;;
41043;SDS011;51680;49.806;18.774;2022-10-19T04:38:19;15.80;;;9.70;;
41043;SDS011;51680;49.806;18.774;2022-10-19T04:41:21;13.07;;;9.98;;
41043;SDS011;51680;49.806;18.774;2022-10-19T04:44:23;12.00;;;8.80;;
41043;SDS011;51680;49.806;18.774;2022-10-19T04:47:25;17.17;;;9.18;;
41043;SDS011;51680;49.806;18.774;2022-10-19T04:50:28;15.02;;;9.15;;
41043;SDS011;51680;49.806;18.774;2022-10-19T04:53:29;14.10;;;9.43;;
41043;SDS011;51680;49.806;18.774;2022-10-19T04:56:31;13.07;;;9.43;;
41043;SDS011;51680;49.806;18.774;2022-10-19T04:59:33;12.90;;;9.27;;
41043;SDS011;51680;49.806;18.774;2022-10-19T05:02:35;13.18;;;9.43;;
41043;SDS011;51680;49.806;18.774;2022-10-19T05:05:38;12.63;;;8.93;;
41043;SDS011;51680;49.806;18.774;2022-10-19T05:08:40;12.82;;;9.70;;
41043;SDS011;51680;49.806;18.774;2022-10-19T05:11:42;14.30;;;9.10;;
41043;SDS011;51680;49.806;18.774;2022-10-19T05:14:44;15.52;;;9.13;;
41043;SDS011;51680;49.806;18.774;2022-10-19T05:17:46;13.73;;;9.20;;
41043;SDS011;51680;49.806;18.774;2022-10-19T05:20:49;13.13;;;9.45;;
41043;SDS011;51680;49.806;18.774;2022-10-19T05:23:51;14.77;;;10.33;;
41043;SDS011;51680;49.806;18.774;2022-10-19T05:26:54;12.15;;;9.32;;
41043;SDS011;51680;49.806;18.774;2022-10-19T05:29:56;13.10;;;9.55;;
41043;SDS011;51680;49.806;18.774;2022-10-19T05:32:57;16.92;;;10.45;;
41043;SDS011;51680;49.806;18.774;2022-10-19T05:36:01;16.23;;;9.60;;
41043;SDS011;51680;49.806;18.774;2022-10-19T05:39:11;15.35;;;9.35;;
41043;SDS011;51680;49.806;18.774;2022-10-19T05:42:15;13.38;;;9.55;;
41043;SDS011;51680;49.806;18.774;2022-10-19T05:45:16;12.02;;;9.20;;
41043;SDS011;51680;49.806;18.774;2022-10-19T05:48:37;15.15;;;10.40;;
41043;SDS011;51680;49.806;18.774;2022-10-19T05:51:41;13.10;;;10.13;;
41043;SDS011;51680;49.806;18.774;2022-10-19T05:54:43;15.63;;;9.63;;
41043;SDS011;51680;49.806;18.774;2022-10-19T05:57:44;16.40;;;10.45;;
41043;SDS011;51680;49.806;18.774;2022-10-19T06:00:49;13.50;;;9.52;;
41043;SDS011;51680;49.806;18.774;2022-10-19T06:03:53;14.75;;;9.98;;
41043;SDS011;51680;49.806;18.774;2022-10-19T06:06:57;15.50;;;9.77;;
41043;SDS011;51680;49.806;18.774;2022-10-19T06:09:59;11.87;;;8.73;;
41043;SDS011;51680;49.806;18.774;2022-10-19T06:13:01;14.55;;;8.95;;
41043;SDS011;51680;49.806;18.774;2022-10-19T06:16:03;17.85;;;9.10;;
41043;SDS011;51680;49.806;18.774;2022-10-19T06:19:05;11.77;;;8.15;;
41043;SDS011;51680;49.806;18.774;2022-10-19T06:22:09;17.83;;;8.73;;
41043;SDS011;51680;49.806;18.774;2022-10-19T06:25:10;11.97;;;8.00;;
41043;SDS011;51680;49.806;18.774;2022-10-19T06:28:12;16.08;;;8.30;;
41043;SDS011;51680;49.806;18.774;2022-10-19T06:31:14;11.90;;;8.25;;
41043;SDS011;51680;49.806;18.774;2022-10-19T06:34:16;14.00;;;8.55;;
41043;SDS011;51680;49.806;18.774;2022-10-19T06:37:19;15.18;;;8.82;;
41043;SDS011;51680;49.806;18.774;2022-10-19T06:40:20;16.95;;;8.68;;
41043;SDS011;51680;49.806;18.774;2022-10-19T06:43:22;18.52;;;9.18;;
41043;SDS011;51680;49.806;18.774;2022-10-19T06:46:24;16.08;;;8.88;;
41043;SDS011;51680;49.806;18.774;2022-10-19T06:49:27;17.77;;;8.70;;
41043;SDS011;51680;49.806;18.774;2022-10-19T06:52:30;16.52;;;8.75;;
41043;SDS011;51680;49.806;18.774;2022-10-19T06:55:32;13.65;;;8.35;;
41043;SDS011;51680;49.806;18.774;2022-10-19T06:58:34;16.73;;;8.57;;
41043;SDS011;51680;49.806;18.774;2022-10-19T07:01:36;12.32;;;7.63;;
41043;SDS011;51680;49.806;18.774;2022-10-19T07:04:38;13.18;;;7.93;;
41043;SDS011;51680;49.806;18.774;2022-10-19T07:07:41;11.45;;;7.45;;
41043;SDS011;51680;49.806;18.774;2022-10-19T07:10:47;14.27;;;6.30;;
41043;SDS011;51680;49.806;18.774;2022-10-19T07:13:50;12.68;;;6.25;;
41043;SDS011;51680;49.806;18.774;2022-10-19T07:16:53;16.48;;;7.65;;
41043;SDS011;51680;49.806;18.774;2022-10-19T07:19:54;16.60;;;6.85;;
41043;SDS011;51680;49.806;18.774;2022-10-19T07:22:57;17.02;;;7.07;;
41043;SDS011;51680;49.806;18.774;2022-10-19T07:26:02;14.90;;;7.50;;
41043;SDS011;51680;49.806;18.774;2022-10-19T07:29:05;16.83;;;7.38;;
41043;SDS011;51680;49.806;18.774;2022-10-19T07:32:07;16.55;;;7.13;;
41043;SDS011;51680;49.806;18.774;2022-10-19T07:35:09;14.18;;;6.55;;
41043;SDS011;51680;49.806;18.774;2022-10-19T07:38:12;11.98;;;7.22;;
41043;SDS011;51680;49.806;18.774;2022-10-19T07:41:14;13.60;;;7.20;;
41043;SDS011;51680;49.806;18.774;2022-10-19T07:44:18;14.52;;;7.45;;
41043;SDS011;51680;49.806;18.774;2022-10-19T07:47:20;16.67;;;8.50;;
41043;SDS011;51680;49.806;18.774;2022-10-19T07:50:22;16.75;;;8.10;;
41043;SDS011;51680;49.806;18.774;2022-10-19T07:53:25;16.85;;;9.27;;
41043;SDS011;51680;49.806;18.774;2022-10-19T07:56:27;19.27;;;9.10;;
41043;SDS011;51680;49.806;18.774;2022-10-19T07:59:29;16.23;;;9.13;;
41043;SDS011;51680;49.806;18.774;2022-10-19T08:02:31;16.33;;;9.85;;
41043;SDS011;51680;49.806;18.774;2022-10-19T08:05:35;20.25;;;10.35;;
41043;SDS011;51680;49.806;18.774;2022-10-19T08:08:57;15.02;;;9.48;;
41043;SDS011;51680;49.806;18.774;2022-10-19T08:11:59;22.35;;;9.80;;
41043;SDS011;51680;49.806;18.774;2022-10-19T08:15:01;17.52;;;9.77;;
41043;SDS011;51680;49.806;18.774;2022-10-19T08:18:05;19.98;;;10.35;;
41043;SDS011;51680;49.806;18.774;2022-10-19T08:21:07;15.73;;;9.50;;
41043;SDS011;51680;49.806;18.774;2022-10-19T08:24:10;19.15;;;10.23;;
41043;SDS011;51680;49.806;18.774;2022-10-19T08:27:34;20.42;;;9.95;;
41043;SDS011;51680;49.806;18.774;2022-10-19T08:30:36;16.08;;;9.35;;
41043;SDS011;51680;49.806;18.774;2022-10-19T08:33:38;19.15;;;9.77;;
41043;SDS011;51680;49.806;18.774;2022-10-19T08:36:40;15.43;;;8.35;;
41043;SDS011;51680;49.806;18.774;2022-10-19T08:39:43;11.60;;;7.47;;
41043;SDS011;51680;49.806;18.774;2022-10-19T08:42:48;16.92;;;8.07;;
41043;SDS011;51680;49.806;18.774;2022-10-19T08:45:55;13.85;;;7.55;;
41043;SDS011;51680;49.806;18.774;2022-10-19T08:49:08;17.00;;;7.20;;
41043;SDS011;51680;49.806;18.774;2022-10-19T08:52:13;13.27;;;6.80;;
41043;SDS011;51680;49.806;18.774;2022-10-19T08:55:21;8.80;;;4.45;;
41043;SDS011;51680;49.806;18.774;2022-10-19T08:58:35;10.43;;;4.85;;
41043;SDS011;51680;49.806;18.774;2022-10-19T09:01:48;7.53;;;4.28;;
41043;SDS011;51680;49.806;18.774;2022-10-19T09:04:54;9.98;;;3.95;;
41043;SDS011;51680;49.806;18.774;2022-10-19T09:08:03;14.25;;;5.18;;
41043;SDS011;51680;49.806;18.774;2022-10-19T09:11:06;9.48;;;3.92;;
41043;SDS011;51680;49.806;18.774;2022-10-19T09:14:12;13.15;;;3.63;;
41043;SDS011;51680;49.806;18.774;2022-10-19T09:17:18;9.48;;;3.90;;
41043;SDS011;51680;49.806;18.774;2022-10-19T09:20:21;7.97;;;3.70;;
41043;SDS011;51680;49.806;18.774;2022-10-19T09:23:26;8.40;;;3.55;;
41043;SDS011;51680;49.806;18.774;2022-10-19T09:26:31;10.85;;;3.30;;
41043;SDS011;51680;49.806;18.774;2022-10-19T09:29:56;7.68;;;3.15;;
41043;SDS011;51680;49.806;18.774;2022-10-19T09:33:00;10.18;;;3.42;;
41043;SDS011;51680;49.806;18.774;2022-10-19T09:36:03;8.25;;;2.95;;
41043;SDS011;51680;49.806;18.774;2022-10-19T09:39:07;9.63;;;3.63;;
41043;SDS011;51680;49.806;18.774;2022-10-19T09:42:16;5.95;;;2.47;;
41043;SDS011;51680;49.806;18.774;2022-10-19T09:45:27;9.48;;;2.35;;
41043;SDS011;51680;49.806;18.774;2022-10-19T09:48:53;9.80;;;2.75;;
41043;SDS011;51680;49.806;18.774;2022-10-19T09:51:55;8.65;;;2.08;;
41043;SDS011;51680;49.806;18.774;2022-10-19T09:55:00;7.93;;;2.25;;
41043;SDS011;51680;49.806;18.774;2022-10-19T09:58:09;9.27;;;2.13;;
41043;SDS011;51680;49.806;18.774;2022-10-19T10:01:30;9.55;;;2.53;;
41043;SDS011;51680;49.806;18.774;2022-10-19T10:04:33;6.75;;;2.00;;
41043;SDS011;51680;49.806;18.774;2022-10-19T10:07:36;9.35;;;2.30;;
41043;SDS011;51680;49.806;18.774;2022-10-19T10:10:41;8.05;;;1.90;;
41043;SDS011;51680;49.806;18.774;2022-10-19T10:13:48;8.32;;;1.90;;
41043;SDS011;51680;49.806;18.774;2022-10-19T10:16:53;10.68;;;2.00;;
41043;SDS011;51680;49.806;18.774;2022-10-19T10:20:04;6.75;;;1.63;;
41043;SDS011;51680;49.806;18.774;2022-10-19T10:23:21;11.98;;;1.40;;
41043;SDS011;51680;49.806;18.774;2022-10-19T10:26:26;5.75;;;1.38;;
41043;SDS011;51680;49.806;18.774;2022-10-19T10:29:30;6.35;;;0.90;;
41043;SDS011;51680;49.806;18.774;2022-10-19T10:32:35;5.57;;;1.23;;
41043;SDS011;51680;49.806;18.774;2022-10-19T10:35:38;4.70;;;1.33;;
41043;SDS011;51680;49.806;18.774;2022-10-19T10:38:40;5.88;;;1.17;;
41043;SDS011;51680;49.806;18.774;2022-10-19T10:41:49;4.13;;;1.20;;
41043;SDS011;51680;49.806;18.774;2022-10-19T10:44:53;5.32;;;0.93;;
41043;SDS011;51680;49.806;18.774;2022-10-19T10:47:56;5.05;;;0.90;;
41043;SDS011;51680;49.806;18.774;2022-10-19T10:51:00;5.68;;;1.02;;
41043;SDS011;51680;49.806;18.774;2022-10-19T10:54:08;6.13;;;1.00;;
41043;SDS011;51680;49.806;18.774;2022-10-19T10:57:16;4.20;;;0.77;;
41043;SDS011;51680;49.806;18.774;2022-10-19T11:00:24;5.38;;;0.93;;
41043;SDS011;51680;49.806;18.774;2022-10-19T11:03:26;6.13;;;0.80;;
41043;SDS011;51680;49.806;18.774;2022-10-19T11:06:29;4.68;;;0.80;;
41043;SDS011;51680;49.806;18.774;2022-10-19T11:09:35;5.43;;;0.90;;
41043;SDS011;51680;49.806;18.774;2022-10-19T11:12:43;3.45;;;0.88;;
41043;SDS011;51680;49.806;18.774;2022-10-19T11:15:51;6.45;;;1.20;;
41043;SDS011;51680;49.806;18.774;2022-10-19T11:18:55;8.68;;;1.50;;
41043;SDS011;51680;49.806;18.774;2022-10-19T11:22:05;6.70;;;1.35;;
41043;SDS011;51680;49.806;18.774;2022-10-19T11:25:20;6.15;;;1.05;;
41043;SDS011;51680;49.806;18.774;2022-10-19T11:28:29;10.35;;;2.58;;
41043;SDS011;51680;49.806;18.774;2022-10-19T11:31:46;10.23;;;4.43;;
41043;SDS011;51680;49.806;18.774;2022-10-19T11:34:53;9.45;;;1.92;;
41043;SDS011;51680;49.806;18.774;2022-10-19T11:38:07;3.85;;;1.15;;
41043;SDS011;51680;49.806;18.774;2022-10-19T11:41:20;10.43;;;1.80;;
41043;SDS011;51680;49.806;18.774;2022-10-19T11:44:36;8.32;;;1.58;;
41043;SDS011;51680;49.806;18.774;2022-10-19T11:51:19;5.05;;;1.55;;
41043;SDS011;51680;49.806;18.774;2022-10-19T11:54:29;5.75;;;1.65;;
41043;SDS011;51680;49.806;18.774;2022-10-19T11:57:41;6.78;;;1.33;;
41043;SDS011;51680;49.806;18.774;2022-10-19T12:01:11;7.70;;;1.40;;
41043;SDS011;51680;49.806;18.774;2022-10-19T12:08:00;4.93;;;1.50;;
41043;SDS011;51680;49.806;18.774;2022-10-19T12:11:19;5.78;;;1.38;;
41043;SDS011;51680;49.806;18.774;2022-10-19T12:14:28;6.43;;;1.90;;
41043;SDS011;51680;49.806;18.774;2022-10-19T12:17:35;5.75;;;1.70;;
41043;SDS011;51680;49.806;18.774;2022-10-19T12:20:42;11.55;;;4.03;;
41043;SDS011;51680;49.806;18.774;2022-10-19T12:23:48;17.00;;;5.25;;
41043;SDS011;51680;49.806;18.774;2022-10-19T12:27:10;12.65;;;4.50;;
41043;SDS011;51680;49.806;18.774;2022-10-19T12:30:15;8.38;;;2.70;;
41043;SDS011;51680;49.806;18.774;2022-10-19T12:36:30;6.07;;;1.88;;
41043;SDS011;51680;49.806;18.774;2022-10-19T12:39:38;6.88;;;1.30;;
41043;SDS011;51680;49.806;18.774;2022-10-19T12:42:47;4.80;;;1.60;;
41043;SDS011;51680;49.806;18.774;2022-10-19T12:45:58;7.95;;;2.53;;
41043;SDS011;51680;49.806;18.774;2022-10-19T12:52:48;8.13;;;2.20;;
41043;SDS011;51680;49.806;18.774;2022-10-19T12:55:57;6.05;;;2.30;;
41043;SDS011;51680;49.806;18.774;2022-10-19T12:59:00;6.32;;;2.20;;
41043;SDS011;51680;49.806;18.774;2022-10-19T13:02:03;4.95;;;1.40;;
41043;SDS011;51680;49.806;18.774;2022-10-19T13:05:19;8.25;;;2.65;;
41043;SDS011;51680;49.806;18.774;2022-10-19T13:08:25;6.32;;;1.30;;
41043;SDS011;51680;49.806;18.774;2022-10-19T13:11:29;6.43;;;1.83;;
41043;SDS011;51680;49.806;18.774;2022-10-19T13:14:40;6.22;;;2.03;;
41043;SDS011;51680;49.806;18.774;2022-10-19T13:17:43;6.18;;;1.58;;
41043;SDS011;51680;49.806;18.774;2022-10-19T13:20:49;6.93;;;1.35;;
41043;SDS011;51680;49.806;18.774;2022-10-19T13:23:53;4.40;;;1.30;;
41043;SDS011;51680;49.806;18.774;2022-10-19T13:27:37;3.08;;;1.15;;
41043;SDS011;51680;49.806;18.774;2022-10-19T13:31:01;13.80;;;4.10;;
41043;SDS011;51680;49.806;18.774;2022-10-19T13:34:08;12.30;;;4.40;;
41043;SDS011;51680;49.806;18.774;2022-10-19T13:37:11;16.90;;;4.97;;
41043;SDS011;51680;49.806;18.774;2022-10-19T13:40:17;17.42;;;4.57;;
41043;SDS011;51680;49.806;18.774;2022-10-19T13:43:23;13.85;;;4.57;;
41043;SDS011;51680;49.806;18.774;2022-10-19T13:46:36;13.68;;;4.65;;
41043;SDS011;51680;49.806;18.774;2022-10-19T13:53:22;6.78;;;2.97;;
41043;SDS011;51680;49.806;18.774;2022-10-19T13:56:34;9.30;;;3.00;;
41043;SDS011;51680;49.806;18.774;2022-10-19T13:59:50;9.20;;;3.05;;
41043;SDS011;51680;49.806;18.774;2022-10-19T14:03:24;14.75;;;3.38;;
41043;SDS011;51680;49.806;18.774;2022-10-19T14:06:37;12.65;;;4.88;;
41043;SDS011;51680;49.806;18.774;2022-10-19T14:09:48;25.58;;;7.18;;
41043;SDS011;51680;49.806;18.774;2022-10-19T14:13:02;14.25;;;4.47;;
41043;SDS011;51680;49.806;18.774;2022-10-19T14:16:17;11.30;;;4.00;;
41043;SDS011;51680;49.806;18.774;2022-10-19T14:19:22;10.18;;;3.35;;
41043;SDS011;51680;49.806;18.774;2022-10-19T14:22:27;9.18;;;4.00;;
41043;SDS011;51680;49.806;18.774;2022-10-19T14:25:30;15.77;;;5.53;;
41043;SDS011;51680;49.806;18.774;2022-10-19T14:28:32;16.55;;;5.45;;
41043;SDS011;51680;49.806;18.774;2022-10-19T14:31:36;11.27;;;3.90;;
41043;SDS011;51680;49.806;18.774;2022-10-19T14:37:46;5.85;;;2.00;;
41043;SDS011;51680;49.806;18.774;2022-10-19T14:40:48;6.25;;;2.45;;
41043;SDS011;51680;49.806;18.774;2022-10-19T14:43:50;8.75;;;2.95;;
41043;SDS011;51680;49.806;18.774;2022-10-19T14:46:53;12.13;;;4.40;;
41043;SDS011;51680;49.806;18.774;2022-10-19T14:49:55;7.55;;;2.15;;
41043;SDS011;51680;49.806;18.774;2022-10-19T14:52:59;7.03;;;2.30;;
41043;SDS011;51680;49.806;18.774;2022-10-19T14:56:06;10.57;;;2.78;;
41043;SDS011;51680;49.806;18.774;2022-10-19T14:59:14;7.10;;;2.95;;
41043;SDS011;51680;49.806;18.774;2022-10-19T15:02:25;6.75;;;2.97;;
41043;SDS011;51680;49.806;18.774;2022-10-19T15:05:32;5.72;;;2.42;;
41043;SDS011;51680;49.806;18.774;2022-10-19T15:08:37;8.95;;;2.40;;
41043;SDS011;51680;49.806;18.774;2022-10-19T15:11:43;6.65;;;2.80;;
41043;SDS011;51680;49.806;18.774;2022-10-19T15:14:48;7.93;;;3.22;;
41043;SDS011;51680;49.806;18.774;2022-10-19T15:17:52;8.48;;;3.88;;
41043;SDS011;51680;49.806;18.774;2022-10-19T15:20:59;15.60;;;6.18;;
41043;SDS011;51680;49.806;18.774;2022-10-19T15:24:15;11.75;;;6.00;;
41043;SDS011;51680;49.806;18.774;2022-10-19T15:27:28;9.75;;;4.57;;
41043;SDS011;51680;49.806;18.774;2022-10-19T15:30:32;12.98;;;5.60;;
41043;SDS011;51680;49.806;18.774;2022-10-19T15:33:37;10.93;;;4.80;;
41043;SDS011;51680;49.806;18.774;2022-10-19T15:36:51;16.40;;;5.47;;
41043;SDS011;51680;49.806;18.774;2022-10-19T15:39:54;13.88;;;5.40;;
41043;SDS011;51680;49.806;18.774;2022-10-19T15:42:56;9.20;;;5.18;;
41043;SDS011;51680;49.806;18.774;2022-10-19T15:45:58;11.65;;;6.35;;
41043;SDS011;51680;49.806;18.774;2022-10-19T15:49:04;11.57;;;6.13;;
41043;SDS011;51680;49.806;18.774;2022-10-19T15:52:43;14.40;;;6.00;;
41043;SDS011;51680;49.806;18.774;2022-10-19T15:55:45;10.35;;;4.45;;
41043;SDS011;51680;49.806;18.774;2022-10-19T15:58:47;12.88;;;6.15;;
41043;SDS011;51680;49.806;18.774;2022-10-19T16:01:49;8.52;;;3.83;;
41043;SDS011;51680;49.806;18.774;2022-10-19T16:04:52;11.40;;;4.72;;
41043;SDS011;51680;49.806;18.774;2022-10-19T16:07:54;12.88;;;6.57;;
41043;SDS011;51680;49.806;18.774;2022-10-19T16:10:56;19.83;;;13.18;;
41043;SDS011;51680;49.806;18.774;2022-10-19T16:13:58;13.45;;;7.30;;
41043;SDS011;51680;49.806;18.774;2022-10-19T16:17:00;14.88;;;6.53;;
41043;SDS011;51680;49.806;18.774;2022-10-19T16:20:03;12.77;;;5.05;;
41043;SDS011;51680;49.806;18.774;2022-10-19T16:23:06;11.10;;;4.90;;
41043;SDS011;51680;49.806;18.774;2022-10-19T16:26:10;12.23;;;4.25;;
41043;SDS011;51680;49.806;18.774;2022-10-19T16:29:12;10.75;;;4.75;;
41043;SDS011;51680;49.806;18.774;2022-10-19T16:32:14;27.35;;;4.70;;
41043;SDS011;51680;49.806;18.774;2022-10-19T16:35:17;126.30;;;10.05;;
41043;SDS011;51680;49.806;18.774;2022-10-19T16:38:19;50.60;;;7.47;;
41043;SDS011;51680;49.806;18.774;2022-10-19T16:41:20;111.18;;;9.93;;
41043;SDS011;51680;49.806;18.774;2022-10-19T16:44:22;21.83;;;5.78;;
41043;SDS011;51680;49.806;18.774;2022-10-19T16:47:24;19.27;;;9.82;;
41043;SDS011;51680;49.806;18.774;2022-10-19T16:50:27;21.42;;;9.07;;
41043;SDS011;51680;49.806;18.774;2022-10-19T16:53:29;18.65;;;7.95;;
41043;SDS011;51680;49.806;18.774;2022-10-19T16:56:31;17.45;;;9.35;;
41043;SDS011;51680;49.806;18.774;2022-10-19T16:59:34;23.08;;;10.02;;
41043;SDS011;51680;49.806;18.774;2022-10-19T17:02:36;22.30;;;11.02;;
41043;SDS011;51680;49.806;18.774;2022-10-19T17:05:39;24.60;;;12.05;;
41043;SDS011;51680;49.806;18.774;2022-10-19T17:08:41;25.55;;;12.15;;
41043;SDS011;51680;49.806;18.774;2022-10-19T17:11:42;22.92;;;11.20;;
41043;SDS011;51680;49.806;18.774;2022-10-19T17:14:44;17.27;;;9.32;;
41043;SDS011;51680;49.806;18.774;2022-10-19T17:17:46;15.77;;;7.18;;
41043;SDS011;51680;49.806;18.774;2022-10-19T17:20:49;16.15;;;6.35;;
41043;SDS011;51680;49.806;18.774;2022-10-19T17:23:51;13.20;;;5.78;;
41043;SDS011;51680;49.806;18.774;2022-10-19T17:26:54;13.13;;;5.97;;
41043;SDS011;51680;49.806;18.774;2022-10-19T17:29:56;12.30;;;5.80;;
41043;SDS011;51680;49.806;18.774;2022-10-19T17:32:57;16.27;;;8.30;;
41043;SDS011;51680;49.806;18.774;2022-10-19T17:36:05;20.17;;;9.27;;
41043;SDS011;51680;49.806;18.774;2022-10-19T17:39:10;17.77;;;8.50;;
41043;SDS011;51680;49.806;18.774;2022-10-19T17:42:12;19.85;;;9.75;;
41043;SDS011;51680;49.806;18.774;2022-10-19T17:45:14;21.33;;;8.82;;
41043;SDS011;51680;49.806;18.774;2022-10-19T17:48:16;20.88;;;9.45;;
41043;SDS011;51680;49.806;18.774;2022-10-19T17:51:38;19.58;;;7.60;;
41043;SDS011;51680;49.806;18.774;2022-10-19T17:54:40;14.90;;;7.70;;
41043;SDS011;51680;49.806;18.774;2022-10-19T17:57:41;19.92;;;9.50;;
41043;SDS011;51680;49.806;18.774;2022-10-19T18:00:43;21.10;;;11.30;;
41043;SDS011;51680;49.806;18.774;2022-10-19T18:03:45;21.13;;;10.77;;
41043;SDS011;51680;49.806;18.774;2022-10-19T18:06:49;15.43;;;7.57;;
41043;SDS011;51680;49.806;18.774;2022-10-19T18:09:51;17.30;;;8.07;;
41043;SDS011;51680;49.806;18.774;2022-10-19T18:12:52;26.40;;;8.80;;
41043;SDS011;51680;49.806;18.774;2022-10-19T18:15:57;18.52;;;9.30;;
41043;SDS011;51680;49.806;18.774;2022-10-19T18:19:00;31.92;;;8.82;;
41043;SDS011;51680;49.806;18.774;2022-10-19T18:22:03;20.98;;;8.23;;
41043;SDS011;51680;49.806;18.774;2022-10-19T18:25:06;17.85;;;9.02;;
41043;SDS011;51680;49.806;18.774;2022-10-19T18:28:08;20.80;;;9.70;;
41043;SDS011;51680;49.806;18.774;2022-10-19T18:31:11;18.70;;;10.27;;